Terminal Aerodrome Forecast
Issued by NWS

Home | Current Version | Previous Version | Text Only | Print | Product List | Glossary On
Versions: 1 2 3 4 5 6 7 8 9 10 11 12 13
000
FTUS46 KLOX 240545
TAFBUR
TAF
KBUR 240545Z 2406/2506 VRB03KT 5SM BR OVC008
     FM241700 17005KT P6SM SKC
     FM241900 18010KT P6SM SKC
     FM250300 16005KT P6SM SKC=

USA.gov is the U.S. government's official web portal to all federal, state and local government web resources and services.